Time;durP1;ratioP1;P1;durP2;ratioP2;P2;SDS_P1;SDS_P2;PMS_P1;PMS_P2;Temp;Humidity;BMP_temperature;BMP_pressure;BME280_temperature;BME280_humidity;BME280_pressure;Samples;Min_cycle;Max_cycle;Signal;HPM_P1;HPM_P2
2021/10/23 00:00:41;;;;;;;54.47;42.05;;;15.20;99.90;;;;;;5085543;28;20055;-58
2021/10/23 00:03:08;;;;;;;58.30;44.65;;;15.30;99.90;;;;;;5105141;28;20031;-59
2021/10/23 00:05:34;;;;;;;50.58;41.55;;;15.20;99.90;;;;;;5104409;28;20026;-59
2021/10/23 00:07:59;;;;;;;48.97;41.83;;;15.30;99.90;;;;;;5063053;28;20422;-58
2021/10/23 00:10:25;;;;;;;50.22;40.90;;;15.10;99.90;;;;;;5065067;28;20075;-58
2021/10/23 00:12:51;;;;;;;46.45;38.88;;;15.20;99.90;;;;;;5079527;28;20050;-58
2021/10/23 00:15:17;;;;;;;54.58;45.17;;;15.10;99.90;;;;;;5108147;28;20519;-58
2021/10/23 00:17:43;;;;;;;58.53;46.83;;;15.00;99.90;;;;;;5108539;28;20027;-57
2021/10/23 00:20:10;;;;;;;61.90;49.97;;;15.00;99.90;;;;;;5109684;28;20522;-57
2021/10/23 00:22:36;;;;;;;67.90;56.75;;;15.00;99.90;;;;;;5071783;28;20094;-58
2021/10/23 00:25:02;;;;;;;82.35;70.65;;;14.90;99.90;;;;;;5110404;28;20430;-58
2021/10/23 00:27:28;;;;;;;81.97;68.85;;;14.80;99.90;;;;;;5106111;28;20372;-58
2021/10/23 00:29:54;;;;;;;81.72;67.20;;;14.90;99.90;;;;;;5098998;28;20035;-59
2021/10/23 00:32:20;;;;;;;74.45;60.97;;;15.00;99.90;;;;;;5069396;28;20040;-59
2021/10/23 00:34:46;;;;;;;87.90;72.47;;;15.00;99.90;;;;;;5047628;28;20544;-58
2021/10/23 00:37:12;;;;;;;103.53;78.65;;;15.10;99.90;;;;;;5112818;28;20039;-57
2021/10/23 00:39:39;;;;;;;83.15;66.63;;;15.00;99.90;;;;;;5105585;28;20139;-59
2021/10/23 00:42:04;;;;;;;65.07;54.15;;;15.00;99.90;;;;;;5109415;27;20023;-58
2021/10/23 00:44:38;;;;;;;67.47;50.55;;;14.90;99.90;;;;;;5114019;27;20039;-58
2021/10/23 00:47:08;;;;;;;52.03;42.58;;;14.90;99.90;;;;;;5117155;27;20055;-58
2021/10/23 00:49:36;;;;;;;51.10;41.33;;;15.00;99.90;;;;;;5110943;28;20135;-58
2021/10/23 00:52:03;;;;;;;50.55;39.40;;;15.10;99.90;;;;;;5044090;28;20040;-60
2021/10/23 00:54:30;;;;;;;47.58;37.63;;;15.20;99.90;;;;;;5019840;28;20168;-58
2021/10/23 00:56:57;;;;;;;44.03;35.97;;;15.20;99.90;;;;;;5037184;28;20075;-58
2021/10/23 00:59:24;;;;;;;47.30;38.35;;;15.20;99.90;;;;;;5041111;28;20750;-58
2021/10/23 01:01:49;;;;;;;55.63;49.10;;;15.10;99.90;;;;;;5041714;28;20038;-58
2021/10/23 01:04:16;;;;;;;56.45;45.63;;;15.10;99.90;;;;;;5044802;28;20030;-57
2021/10/23 01:06:42;;;;;;;57.78;44.22;;;15.20;99.90;;;;;;5037896;28;20060;-58
2021/10/23 01:09:08;;;;;;;51.30;42.22;;;15.10;99.90;;;;;;5037108;28;20536;-58
2021/10/23 01:11:34;;;;;;;56.83;42.20;;;15.10;99.90;;;;;;5041733;28;20033;-58
2021/10/23 01:14:00;;;;;;;54.22;40.50;;;15.20;99.90;;;;;;5005206;28;20369;-57
2021/10/23 01:16:26;;;;;;;52.22;40.05;;;15.20;99.90;;;;;;5041798;28;20087;-58
2021/10/23 01:18:52;;;;;;;54.53;41.53;;;15.20;99.90;;;;;;5047500;28;20522;-58
2021/10/23 01:21:22;;;;;;;52.90;41.50;;;15.30;99.90;;;;;;5041011;28;20053;-58
2021/10/23 01:23:47;;;;;;;51.63;40.33;;;15.30;99.90;;;;;;5097531;27;20035;-58
2021/10/23 01:26:13;;;;;;;51.08;38.92;;;15.30;99.90;;;;;;5103009;27;20550;-58
2021/10/23 01:28:39;;;;;;;60.53;43.03;;;15.20;99.90;;;;;;5109222;27;20046;-59
2021/10/23 01:31:05;;;;;;;56.60;40.22;;;15.10;99.90;;;;;;5076584;28;20032;-57
2021/10/23 01:33:31;;;;;;;61.78;42.95;;;15.10;99.90;;;;;;5068379;28;20032;-57
2021/10/23 01:36:17;;;;;;;60.40;42.97;;;15.10;99.90;;;;;;5116404;27;20356;-58
2021/10/23 01:38:44;;;;;;;67.53;46.15;;;15.10;99.90;;;;;;5100199;27;20052;-58
2021/10/23 01:41:10;;;;;;;65.43;45.10;;;15.10;99.90;;;;;;5110551;28;20032;-58
2021/10/23 01:43:36;;;;;;;65.22;45.38;;;14.90;99.90;;;;;;5112690;27;20379;-57
2021/10/23 01:46:03;;;;;;;74.53;51.22;;;14.90;99.90;;;;;;5117405;27;20031;-57
2021/10/23 01:48:29;;;;;;;76.53;48.83;;;15.10;99.90;;;;;;5111694;28;20028;-58
2021/10/23 01:50:55;;;;;;;74.25;49.22;;;15.10;99.90;;;;;;5111706;27;20031;-58
2021/10/23 01:53:20;;;;;;;74.75;47.60;;;15.10;99.90;;;;;;5103445;28;20111;-57
2021/10/23 01:55:46;;;;;;;72.28;46.80;;;15.20;99.90;;;;;;5112850;28;20027;-57
2021/10/23 01:58:13;;;;;;;83.45;50.53;;;15.10;99.90;;;;;;5106236;28;20038;-57
2021/10/23 02:00:39;;;;;;;75.57;47.30;;;15.10;99.90;;;;;;5102587;27;20032;-57
2021/10/23 02:03:05;;;;;;;76.95;47.72;;;15.00;99.90;;;;;;5114584;27;20049;-58
2021/10/23 02:05:31;;;;;;;83.25;51.80;;;15.00;99.90;;;;;;5113766;27;20024;-57
2021/10/23 02:07:57;;;;;;;71.25;47.95;;;14.90;99.90;;;;;;5113543;27;20023;-59
2021/10/23 02:10:23;;;;;;;75.55;49.80;;;14.90;99.90;;;;;;5106173;27;20026;-58
2021/10/23 02:12:49;;;;;;;77.45;48.85;;;14.90;99.90;;;;;;5111270;28;20535;-64
2021/10/23 02:15:15;;;;;;;78.95;48.35;;;14.80;99.90;;;;;;5102858;28;20031;-59
2021/10/23 02:17:41;;;;;;;74.85;46.85;;;14.70;99.90;;;;;;5107397;27;20043;-59
2021/10/23 02:20:08;;;;;;;76.00;46.65;;;14.70;99.90;;;;;;5107132;28;20035;-59
2021/10/23 02:22:35;;;;;;;75.53;43.03;;;14.70;99.90;;;;;;5106563;28;20499;-58
2021/10/23 02:25:00;;;;;;;74.07;45.58;;;14.60;99.90;;;;;;5062083;27;20122;-58
2021/10/23 02:27:26;;;;;;;85.43;49.50;;;14.60;99.90;;;;;;5042528;28;20237;-58
2021/10/23 02:29:52;;;;;;;79.35;43.90;;;14.50;99.90;;;;;;5010438;28;20049;-58
2021/10/23 02:32:18;;;;;;;88.25;47.38;;;14.40;99.90;;;;;;5045372;28;20480;-58
2021/10/23 02:34:43;;;;;;;81.13;44.70;;;14.50;99.90;;;;;;5062034;28;20106;-58
2021/10/23 02:37:09;;;;;;;85.05;42.42;;;14.50;99.90;;;;;;5006838;28;20037;-58
2021/10/23 02:39:35;;;;;;;85.80;48.28;;;14.50;99.90;;;;;;4976287;28;20056;-58
2021/10/23 02:42:01;;;;;;;80.95;45.75;;;14.40;99.90;;;;;;5050563;28;20036;-58
2021/10/23 02:44:26;;;;;;;71.72;41.35;;;14.40;99.90;;;;;;5062144;28;20037;-58
2021/10/23 02:46:52;;;;;;;81.75;43.78;;;14.30;99.90;;;;;;5047912;28;20033;-59
2021/10/23 02:49:18;;;;;;;69.25;40.33;;;14.30;99.90;;;;;;5046783;28;20033;-58
2021/10/23 02:51:47;;;;;;;79.10;42.70;;;14.20;99.90;;;;;;5049156;28;20037;-58
2021/10/23 02:54:13;;;;;;;69.85;39.47;;;14.20;99.90;;;;;;5017166;28;20037;-59
2021/10/23 02:56:39;;;;;;;74.55;39.97;;;14.20;99.90;;;;;;5029509;28;20090;-58
2021/10/23 02:59:05;;;;;;;65.40;39.58;;;14.20;99.90;;;;;;5058375;27;20446;-57
2021/10/23 03:01:31;;;;;;;74.60;40.35;;;14.20;99.90;;;;;;5108782;27;20034;-58
2021/10/23 03:03:57;;;;;;;63.08;38.63;;;14.20;99.90;;;;;;5113831;27;20076;-59
2021/10/23 03:06:23;;;;;;;64.85;40.15;;;14.30;99.90;;;;;;5108630;27;20110;-59
2021/10/23 03:08:48;;;;;;;70.43;41.10;;;14.30;99.90;;;;;;5115853;27;20553;-59
2021/10/23 03:11:14;;;;;;;79.68;44.53;;;14.40;99.90;;;;;;5073510;28;20038;-59
2021/10/23 03:13:41;;;;;;;62.47;37.30;;;14.50;99.90;;;;;;5121501;27;20030;-58
2021/10/23 03:16:08;;;;;;;63.33;39.40;;;14.70;99.90;;;;;;5117121;27;20015;-59
2021/10/23 03:18:34;;;;;;;60.83;37.90;;;14.70;99.90;;;;;;5122838;27;20026;-59
2021/10/23 03:21:00;;;;;;;55.88;36.22;;;14.70;99.90;;;;;;5117383;27;20047;-59
2021/10/23 03:23:26;;;;;;;56.58;37.10;;;14.60;99.90;;;;;;5115852;27;20075;-59
2021/10/23 03:25:52;;;;;;;56.60;37.45;;;14.60;99.90;;;;;;5071868;28;20119;-59
2021/10/23 03:28:18;;;;;;;49.20;33.22;;;14.70;99.90;;;;;;5118272;27;20501;-61
2021/10/23 03:30:43;;;;;;;47.58;33.45;;;14.70;99.90;;;;;;5097147;28;20563;-59
2021/10/23 03:33:09;;;;;;;48.17;33.28;;;14.80;99.90;;;;;;5063818;28;20031;-58
2021/10/23 03:35:35;;;;;;;40.05;27.60;;;14.80;99.90;;;;;;5118261;28;20123;-59
2021/10/23 03:38:01;;;;;;;41.78;29.10;;;14.70;99.90;;;;;;5119352;27;20126;-61
2021/10/23 03:40:27;;;;;;;39.22;28.35;;;14.80;99.90;;;;;;5105536;28;20058;-58
2021/10/23 03:42:53;;;;;;;25.42;19.88;;;14.80;99.90;;;;;;5106783;28;20551;-59
2021/10/23 03:45:19;;;;;;;17.58;13.70;;;14.70;99.90;;;;;;5107319;28;20020;-61
2021/10/23 03:47:45;;;;;;;17.58;14.35;;;14.40;99.90;;;;;;5039504;28;20031;-59
2021/10/23 03:50:11;;;;;;;16.45;13.27;;;14.30;99.90;;;;;;5064218;28;20713;-59
2021/10/23 03:52:37;;;;;;;17.58;13.38;;;14.30;99.90;;;;;;5108987;28;20107;-58
2021/10/23 03:55:03;;;;;;;15.50;12.82;;;14.20;99.90;;;;;;5112265;28;20555;-58
2021/10/23 03:57:29;;;;;;;13.98;12.43;;;14.10;99.90;;;;;;5106706;28;20386;-58
2021/10/23 03:59:55;;;;;;;12.43;9.68;;;14.10;99.90;;;;;;5118123;28;20027;-58
2021/10/23 04:02:22;;;;;;;12.20;9.20;;;14.10;99.90;;;;;;5104451;28;20027;-58
2021/10/23 04:04:48;;;;;;;12.75;8.20;;;14.10;99.90;;;;;;5107379;28;20031;-59
2021/10/23 04:07:13;;;;;;;9.98;8.00;;;13.90;99.90;;;;;;5108161;28;20375;-58
2021/10/23 04:09:39;;;;;;;11.45;7.88;;;14.00;99.90;;;;;;5112836;28;20443;-59
2021/10/23 04:12:05;;;;;;;11.23;8.38;;;14.00;99.90;;;;;;5106916;28;20126;-58
2021/10/23 04:14:31;;;;;;;8.98;6.45;;;14.00;99.90;;;;;;5060695;28;20036;-57
2021/10/23 04:16:57;;;;;;;8.95;6.25;;;14.00;99.90;;;;;;5070748;28;20028;-58
2021/10/23 04:19:23;;;;;;;7.95;6.03;;;14.00;99.90;;;;;;5113137;28;20140;-58
2021/10/23 04:21:48;;;;;;;9.63;6.10;;;14.00;99.90;;;;;;5050961;27;20493;-58
2021/10/23 04:24:14;;;;;;;10.85;6.43;;;14.00;99.90;;;;;;5111832;27;20045;-58
2021/10/23 04:26:40;;;;;;;10.00;6.00;;;14.10;99.90;;;;;;5115635;27;20085;-59
2021/10/23 04:29:06;;;;;;;8.38;6.68;;;14.10;99.90;;;;;;5105486;28;20074;-58
2021/10/23 04:31:33;;;;;;;8.82;6.65;;;14.10;99.90;;;;;;5114088;27;20070;-58
2021/10/23 04:34:01;;;;;;;10.82;5.47;;;14.10;99.90;;;;;;5063358;28;20070;-58
2021/10/23 04:36:27;;;;;;;10.93;6.05;;;14.00;99.90;;;;;;5108224;27;20543;-58
2021/10/23 04:38:52;;;;;;;10.52;4.68;;;13.90;99.90;;;;;;5060050;27;20131;-58
2021/10/23 04:41:18;;;;;;;26.27;12.00;;;13.90;99.90;;;;;;5093620;27;20031;-58
2021/10/23 04:43:44;;;;;;;13.18;5.43;;;13.80;99.90;;;;;;5113384;27;20379;-58
2021/10/23 04:46:10;;;;;;;7.15;5.10;;;13.80;99.90;;;;;;5114247;27;20027;-57
2021/10/23 04:48:36;;;;;;;11.40;5.30;;;13.70;99.90;;;;;;5115064;27;20028;-57
2021/10/23 04:51:02;;;;;;;7.30;4.35;;;13.70;99.90;;;;;;5124708;27;20058;-59
2021/10/23 04:53:28;;;;;;;8.82;5.05;;;13.70;99.90;;;;;;5112913;27;20024;-57
2021/10/23 04:55:54;;;;;;;10.82;4.63;;;13.70;99.90;;;;;;5111120;27;20446;-58
2021/10/23 04:58:20;;;;;;;8.95;4.45;;;13.70;99.90;;;;;;5098956;27;20118;-57
2021/10/23 05:00:46;;;;;;;6.40;4.35;;;13.80;99.90;;;;;;5089328;28;20044;-57
2021/10/23 05:03:11;;;;;;;8.80;4.07;;;13.80;99.90;;;;;;5094001;27;20035;-57
2021/10/23 05:05:37;;;;;;;10.68;5.80;;;13.90;99.90;;;;;;5048716;28;20048;-58
2021/10/23 05:08:03;;;;;;;11.27;6.07;;;13.90;99.90;;;;;;5103578;27;20053;-59
2021/10/23 05:10:29;;;;;;;12.40;6.65;;;13.90;99.90;;;;;;5093871;28;20039;-58
2021/10/23 05:12:55;;;;;;;9.90;7.28;;;13.80;99.90;;;;;;5053872;27;20036;-58
2021/10/23 05:15:21;;;;;;;11.93;6.55;;;13.70;99.90;;;;;;5118463;27;20489;-57
2021/10/23 05:17:47;;;;;;;9.50;5.40;;;13.40;99.90;;;;;;5122135;27;20035;-58
2021/10/23 05:20:13;;;;;;;10.45;4.68;;;13.10;99.90;;;;;;5124685;27;20019;-57
2021/10/23 05:22:39;;;;;;;8.40;3.90;;;12.90;99.90;;;;;;5115205;27;20471;-57
2021/10/23 05:25:06;;;;;;;7.90;3.60;;;12.80;99.90;;;;;;5115831;27;20019;-58
2021/10/23 05:27:32;;;;;;;11.20;4.47;;;12.60;99.90;;;;;;5108956;28;20032;-57
2021/10/23 05:29:58;;;;;;;8.98;5.57;;;12.70;99.90;;;;;;5110792;27;20046;-58
2021/10/23 05:32:24;;;;;;;9.77;5.72;;;12.60;99.90;;;;;;5090858;28;20031;-57
2021/10/23 05:34:50;;;;;;;12.98;6.75;;;12.70;99.90;;;;;;5113406;27;20024;-58
2021/10/23 05:37:16;;;;;;;7.63;5.70;;;12.80;99.90;;;;;;5104772;27;20023;-57
2021/10/23 05:39:42;;;;;;;10.20;4.97;;;12.80;99.90;;;;;;5102646;28;20055;-58
2021/10/23 05:42:08;;;;;;;11.43;7.00;;;12.90;99.90;;;;;;5049894;28;20032;-58
2021/10/23 05:44:34;;;;;;;21.98;16.65;;;13.00;99.90;;;;;;5109785;27;20027;-53
2021/10/23 05:47:00;;;;;;;12.05;6.72;;;13.00;99.90;;;;;;5111869;27;20020;-54
2021/10/23 05:49:26;;;;;;;10.10;7.45;;;13.10;99.90;;;;;;5106395;28;20093;-56
2021/10/23 05:51:52;;;;;;;13.85;8.35;;;13.30;99.90;;;;;;5113815;27;20421;-56
2021/10/23 05:54:18;;;;;;;15.45;9.77;;;13.30;99.90;;;;;;5112219;28;20027;-56
2021/10/23 05:56:44;;;;;;;49.03;31.13;;;13.30;99.90;;;;;;5104804;28;20031;-56
2021/10/23 05:59:13;;;;;;;83.60;40.28;;;13.30;99.90;;;;;;5109947;28;20032;-56
2021/10/23 06:01:42;;;;;;;19.50;8.38;;;13.30;99.90;;;;;;5104068;27;20371;-56
2021/10/23 06:04:07;;;;;;;7.70;4.22;;;13.10;99.90;;;;;;5109415;27;20034;-55
2021/10/23 06:06:34;;;;;;;14.95;5.30;;;13.10;99.90;;;;;;5115267;28;20015;-55
2021/10/23 06:09:01;;;;;;;6.25;4.13;;;13.20;99.90;;;;;;5111389;27;20036;-56
2021/10/23 06:11:28;;;;;;;13.13;8.05;;;13.20;99.90;;;;;;5050377;28;20040;-56
2021/10/23 06:13:56;;;;;;;5.53;3.22;;;13.10;99.90;;;;;;5059171;28;20036;-56
2021/10/23 06:16:22;;;;;;;18.58;10.43;;;13.00;99.90;;;;;;5052089;28;20371;-56
2021/10/23 06:18:48;;;;;;;15.20;7.22;;;13.10;99.90;;;;;;5112453;27;20023;-56
2021/10/23 06:21:14;;;;;;;10.15;7.47;;;13.20;99.90;;;;;;5098092;27;20032;-56
2021/10/23 06:23:40;;;;;;;15.10;6.88;;;13.30;99.90;;;;;;5105434;27;20023;-56
2021/10/23 06:26:06;;;;;;;7.68;5.68;;;13.40;99.90;;;;;;5109347;28;20439;-56
2021/10/23 06:28:36;;;;;;;9.20;5.95;;;13.40;99.90;;;;;;5116286;27;20474;-56
2021/10/23 06:31:03;;;;;;;7.30;5.25;;;13.30;99.90;;;;;;5104316;28;20043;-56
2021/10/23 06:33:29;;;;;;;10.35;6.80;;;13.10;99.90;;;;;;5101877;28;20085;-57
2021/10/23 06:35:55;;;;;;;8.80;5.90;;;13.20;99.90;;;;;;5110605;28;20032;-55
2021/10/23 06:38:20;;;;;;;8.35;5.28;;;13.30;99.90;;;;;;5112637;27;20086;-56
2021/10/23 06:40:46;;;;;;;11.38;4.93;;;13.30;99.90;;;;;;5108029;28;20088;-55
2021/10/23 06:43:12;;;;;;;9.75;6.13;;;13.40;99.90;;;;;;5109990;27;20103;-56
2021/10/23 06:45:38;;;;;;;12.80;9.07;;;13.40;99.90;;;;;;5114396;27;20547;-55
2021/10/23 06:48:05;;;;;;;10.07;5.78;;;13.20;99.90;;;;;;5114854;27;20102;-56
2021/10/23 06:50:31;;;;;;;11.15;6.18;;;13.10;99.90;;;;;;5109418;27;20028;-56
2021/10/23 06:52:57;;;;;;;5.22;4.43;;;13.20;99.90;;;;;;5106841;27;20427;-56
2021/10/23 06:55:22;;;;;;;9.63;4.57;;;13.10;99.90;;;;;;4996918;28;20053;-56
2021/10/23 06:57:48;;;;;;;9.38;5.03;;;13.00;99.90;;;;;;5048058;28;20044;-56
2021/10/23 07:00:15;;;;;;;11.50;6.07;;;13.00;99.90;;;;;;5109349;28;20489;-56
2021/10/23 07:02:43;;;;;;;7.13;4.72;;;13.20;99.90;;;;;;5105646;28;20384;-55
2021/10/23 07:05:14;;;;;;;5.72;4.22;;;13.10;99.90;;;;;;5073494;28;20043;-56
2021/10/23 07:07:40;;;;;;;6.22;3.83;;;13.10;99.90;;;;;;5109607;28;20027;-56
2021/10/23 07:10:07;;;;;;;5.93;4.07;;;13.10;99.90;;;;;;5108455;28;20264;-56
2021/10/23 07:12:33;;;;;;;12.95;4.50;;;13.00;99.90;;;;;;5080616;27;20047;-56
2021/10/23 07:14:59;;;;;;;6.13;4.10;;;12.90;99.90;;;;;;5109586;28;20030;-55
2021/10/23 07:17:25;;;;;;;7.68;4.53;;;12.90;99.90;;;;;;5101557;27;20848;-55
2021/10/23 07:19:52;;;;;;;9.35;6.32;;;12.90;99.90;;;;;;5114675;27;20049;-55
2021/10/23 07:22:18;;;;;;;10.75;5.95;;;13.00;99.90;;;;;;5109450;28;20039;-56
2021/10/23 07:24:44;;;;;;;10.68;7.15;;;12.90;99.90;;;;;;5103019;28;20071;-56
2021/10/23 07:27:10;;;;;;;7.57;4.68;;;13.00;99.90;;;;;;5101126;28;20052;-56
2021/10/23 07:29:36;;;;;;;11.75;7.25;;;13.00;99.90;;;;;;5097302;28;20223;-55
2021/10/23 07:32:02;;;;;;;9.55;6.30;;;13.00;99.90;;;;;;5101990;28;20107;-56
2021/10/23 07:34:28;;;;;;;7.50;4.75;;;12.90;99.90;;;;;;5099206;28;20526;-55
2021/10/23 07:36:53;;;;;;;12.15;7.32;;;12.80;99.90;;;;;;5099312;28;20019;-56
2021/10/23 07:39:19;;;;;;;12.23;6.40;;;12.80;99.90;;;;;;5101337;28;20076;-55
2021/10/23 07:41:46;;;;;;;14.98;7.00;;;12.70;99.90;;;;;;5100212;28;20527;-56
2021/10/23 07:44:13;;;;;;;8.07;4.18;;;12.70;99.90;;;;;;5103943;28;20028;-56
2021/10/23 07:46:39;;;;;;;9.77;4.10;;;12.70;99.90;;;;;;5111495;28;20102;-57
2021/10/23 07:49:08;;;;;;;7.50;3.78;;;12.60;99.90;;;;;;5111720;27;20036;-58
2021/10/23 07:51:37;;;;;;;8.05;4.82;;;12.50;99.90;;;;;;5108107;27;20594;-57
2021/10/23 07:54:10;;;;;;;7.72;4.05;;;12.50;99.90;;;;;;5111866;28;20027;-57
2021/10/23 07:56:39;;;;;;;13.57;4.18;;;12.60;99.90;;;;;;5115026;28;20019;-57
2021/10/23 07:59:05;;;;;;;9.45;4.70;;;12.60;99.90;;;;;;5069385;28;20447;-57
2021/10/23 08:01:31;;;;;;;9.48;4.63;;;12.60;99.90;;;;;;5108367;27;20103;-56
2021/10/23 08:03:57;;;;;;;7.75;4.07;;;12.50;99.90;;;;;;5121831;27;20478;-56
2021/10/23 08:06:22;;;;;;;7.22;3.58;;;12.60;99.90;;;;;;5109692;28;20494;-56
2021/10/23 08:08:48;;;;;;;7.32;3.80;;;12.60;99.90;;;;;;5031802;28;20490;-57
2021/10/23 08:11:14;;;;;;;8.50;4.13;;;12.60;99.90;;;;;;5121474;27;20072;-56
2021/10/23 08:13:40;;;;;;;10.48;4.90;;;12.60;99.90;;;;;;5058499;28;20054;-56
2021/10/23 08:16:06;;;;;;;8.80;4.15;;;12.60;99.90;;;;;;5112469;28;20470;-57
2021/10/23 08:18:33;;;;;;;7.63;3.33;;;12.70;99.90;;;;;;5116072;27;20028;-57
2021/10/23 08:21:00;;;;;;;6.75;3.10;;;12.70;99.90;;;;;;5118113;27;20028;-56
2021/10/23 08:23:27;;;;;;;7.97;3.35;;;12.80;99.90;;;;;;5108081;28;20028;-56
2021/10/23 08:25:53;;;;;;;5.00;2.85;;;12.90;99.90;;;;;;5113777;28;20542;-56
2021/10/23 08:40:29;;;;;;;5.95;2.72;;;12.90;99.90;;;;;;5082542;28;20392;-57
2021/10/23 08:42:55;;;;;;;8.05;2.80;;;13.40;99.90;;;;;;5070445;28;20024;-57
2021/10/23 08:45:22;;;;;;;6.90;3.38;;;13.40;99.90;;;;;;5023760;28;20044;-57
2021/10/23 08:47:48;;;;;;;6.28;3.58;;;13.40;99.90;;;;;;5069419;28;20025;-57
2021/10/23 08:50:20;;;;;;;4.60;2.63;;;13.20;99.90;;;;;;5069377;28;20035;-57
2021/10/23 08:52:50;;;;;;;5.82;2.83;;;13.20;99.90;;;;;;5007470;28;20044;-58
2021/10/23 08:55:17;;;;;;;5.60;2.78;;;13.20;99.90;;;;;;4976048;28;20109;-57
2021/10/23 08:57:44;;;;;;;7.60;2.70;;;13.20;99.90;;;;;;5010513;28;20116;-57
2021/10/23 09:00:10;;;;;;;6.97;3.38;;;13.10;99.90;;;;;;5009485;28;20076;-55
2021/10/23 09:02:36;;;;;;;5.72;2.20;;;13.10;99.90;;;;;;5006286;28;20035;-55
2021/10/23 09:05:03;;;;;;;9.02;2.20;;;13.20;99.90;;;;;;5008296;28;20037;-55
2021/10/23 09:07:31;;;;;;;3.75;2.03;;;13.30;99.90;;;;;;5008513;28;20034;-55
2021/10/23 09:10:01;;;;;;;8.30;2.58;;;13.30;99.90;;;;;;5009739;28;20422;-56
2021/10/23 09:12:28;;;;;;;5.00;2.05;;;13.30;99.90;;;;;;5005324;28;20460;-54
2021/10/23 09:15:02;;;;;;;5.22;2.40;;;13.30;99.90;;;;;;4986036;28;20457;-53
2021/10/23 09:17:28;;;;;;;3.92;2.08;;;13.30;99.90;;;;;;5009539;28;20496;-53
2021/10/23 09:19:56;;;;;;;10.75;2.90;;;13.20;99.90;;;;;;5009139;28;20045;-54
2021/10/23 09:22:34;;;;;;;5.50;2.00;;;13.20;99.90;;;;;;4975637;28;20061;-53
2021/10/23 09:25:22;;;;;;;4.40;1.70;;;13.20;99.90;;;;;;5065795;28;20025;-55
2021/10/23 09:28:05;;;;;;;5.05;1.98;;;13.20;99.90;;;;;;5078031;28;20082;-57
2021/10/23 09:30:35;;;;;;;;;;;13.10;99.90;;;;;;5066074;28;20029;-57
2021/10/23 09:33:07;;;;;;;4.40;1.67;;;13.00;99.90;;;;;;5067945;28;20431;-57
2021/10/23 09:35:39;;;;;;;;;;;13.00;99.90;;;;;;5070478;28;20029;-56
2021/10/23 09:38:05;;;;;;;5.97;1.90;;;12.90;99.90;;;;;;5070024;28;19913;-57
2021/10/23 09:40:31;;;;;;;5.75;1.88;;;12.80;99.90;;;;;;5061891;28;20052;-55
2021/10/23 09:43:15;;;;;;;6.22;1.90;;;12.90;99.90;;;;;;5017991;28;20535;-54
2021/10/23 09:45:57;;;;;;;5.55;1.83;;;12.90;99.90;;;;;;5004808;28;20056;-56
2021/10/23 09:48:40;;;;;;;7.35;2.17;;;13.00;99.90;;;;;;5053281;28;20159;-56
2021/10/23 09:51:38;;;;;;;3.97;1.98;;;12.90;99.90;;;;;;5020140;28;20044;-56
2021/10/23 09:54:05;;;;;;;5.00;2.47;;;12.90;99.90;;;;;;5042705;28;20114;-57
2021/10/23 09:56:36;;;;;;;7.05;2.90;;;13.00;99.90;;;;;;4995307;28;20042;-54
2021/10/23 09:59:07;;;;;;;14.55;5.15;;;13.10;99.90;;;;;;4995399;28;20070;-53
2021/10/23 10:01:35;;;;;;;7.73;4.70;;;13.10;99.90;;;;;;4994474;28;20034;-53
2021/10/23 10:04:09;;;;;;;8.82;3.80;;;13.00;99.90;;;;;;4994988;28;20470;-53
2021/10/23 10:07:02;;;;;;;9.20;3.80;;;13.00;99.90;;;;;;4995039;28;20030;-55
2021/10/23 10:09:27;;;;;;;8.95;3.70;;;13.10;99.90;;;;;;4945048;28;20061;-53
2021/10/23 10:11:55;;;;;;;9.45;3.42;;;13.20;99.90;;;;;;4962584;28;20034;-54
2021/10/23 10:14:27;;;;;;;8.35;3.45;;;13.20;99.90;;;;;;4994148;28;20054;-53
2021/10/23 10:17:00;;;;;;;8.88;3.33;;;13.00;99.90;;;;;;4992035;28;20049;-55
2021/10/23 10:19:26;;;;;;;5.78;2.70;;;13.10;99.90;;;;;;4995757;28;20389;-54
2021/10/23 10:21:53;;;;;;;5.70;3.47;;;13.00;99.90;;;;;;4993934;28;20062;-55
2021/10/23 10:24:32;;;;;;;13.82;6.82;;;13.00;99.90;;;;;;4992000;28;20042;-53
2021/10/23 10:27:09;;;;;;;11.32;6.30;;;12.70;99.90;;;;;;5010297;28;20033;-53
2021/10/23 10:29:52;;;;;;;17.05;8.10;;;12.80;99.90;;;;;;5054262;28;20041;-56
2021/10/23 10:42:55;;;;;;;10.57;6.00;;;12.70;99.90;;;;;;5055009;28;20040;-55
2021/10/23 10:45:37;;;;;;;10.23;5.10;;;12.70;99.90;;;;;;5055622;28;20017;-55
2021/10/23 10:48:26;;;;;;;9.40;5.72;;;12.80;99.90;;;;;;5052775;28;20511;-56
2021/10/23 10:50:59;;;;;;;10.43;5.63;;;13.00;99.90;;;;;;5057043;28;20063;-57
2021/10/23 10:53:25;;;;;;;8.07;5.25;;;13.00;99.90;;;;;;5055021;28;20365;-55
2021/10/23 10:56:10;;;;;;;11.43;6.97;;;13.10;99.90;;;;;;5055818;28;20028;-55
2021/10/23 10:58:48;;;;;;;12.82;7.78;;;13.00;99.90;;;;;;5055966;28;20025;-52
2021/10/23 11:01:22;;;;;;;21.08;10.50;;;13.10;99.90;;;;;;5054526;28;20021;-55
2021/10/23 11:04:10;;;;;;;16.27;9.95;;;13.00;99.90;;;;;;5037682;28;20029;-57
2021/10/23 11:06:45;;;;;;;13.38;7.90;;;13.10;99.90;;;;;;5034639;28;20045;-56
2021/10/23 11:09:11;;;;;;;11.32;5.85;;;13.20;99.90;;;;;;5051357;28;20553;-55
2021/10/23 11:14:31;;;;;;;15.38;7.88;;;13.10;99.90;;;;;;5057574;28;20051;-53
2021/10/23 11:17:03;;;;;;;13.77;5.93;;;13.10;99.90;;;;;;5052380;28;20040;-56
2021/10/23 11:19:31;;;;;;;10.57;6.53;;;13.10;99.90;;;;;;5056635;28;20055;-55
2021/10/23 11:22:19;;;;;;;10.95;5.47;;;13.20;99.90;;;;;;5054221;28;20116;-56
2021/10/23 11:24:52;;;;;;;9.68;5.50;;;13.20;99.90;;;;;;5049393;28;20111;-54
2021/10/23 11:27:33;;;;;;;11.15;5.45;;;13.20;99.90;;;;;;5052631;28;20025;-55
2021/10/23 11:30:14;;;;;;;7.53;4.75;;;13.30;99.90;;;;;;5016556;28;20128;-56
2021/10/23 11:32:46;;;;;;;8.13;4.90;;;13.40;99.90;;;;;;5034032;28;20372;-58
2021/10/23 11:35:12;;;;;;;9.38;5.63;;;13.40;99.90;;;;;;5022172;28;20045;-54
2021/10/23 11:37:39;;;;;;;8.13;4.90;;;13.50;99.90;;;;;;5054012;28;20033;-56
2021/10/23 11:40:12;;;;;;;9.82;5.15;;;13.50;99.90;;;;;;5054060;28;20128;-54
2021/10/23 11:42:46;;;;;;;6.60;4.20;;;13.30;99.90;;;;;;5018280;28;20071;-55
2021/10/23 11:45:20;;;;;;;10.80;4.40;;;13.30;99.90;;;;;;5053995;28;20361;-52
2021/10/23 11:47:46;;;;;;;6.93;4.05;;;13.30;99.90;;;;;;5003089;28;20032;-54
2021/10/23 11:50:23;;;;;;;8.02;4.63;;;13.50;99.90;;;;;;5050362;28;20370;-55
2021/10/23 11:52:57;;;;;;;8.95;4.38;;;13.40;99.90;;;;;;5053131;28;20021;-54
2021/10/23 11:55:32;;;;;;;9.02;5.07;;;13.50;99.90;;;;;;5025060;28;20037;-55
2021/10/23 11:58:04;;;;;;;10.23;4.30;;;13.60;99.90;;;;;;5051804;28;20021;-54
2021/10/23 12:00:31;;;;;;;8.13;4.20;;;13.80;99.90;;;;;;5051795;28;20029;-52
2021/10/23 12:03:04;;;;;;;9.00;5.05;;;13.90;99.90;;;;;;5053553;28;20131;-52
2021/10/23 12:05:49;;;;;;;9.00;4.70;;;14.00;99.90;;;;;;5054113;28;20569;-52
2021/10/23 12:08:29;;;;;;;6.40;3.90;;;14.00;99.90;;;;;;5050491;28;20032;-52
2021/10/23 12:11:19;;;;;;;8.63;4.85;;;14.10;99.90;;;;;;5054314;28;20032;-53
2021/10/23 12:13:47;;;;;;;7.03;3.90;;;14.20;99.90;;;;;;5051106;28;20036;-52
2021/10/23 12:16:15;;;;;;;7.93;3.50;;;14.20;99.90;;;;;;5052588;28;20028;-52
2021/10/23 12:18:42;;;;;;;9.40;4.20;;;14.00;99.90;;;;;;5054970;28;20032;-52
2021/10/23 12:21:11;;;;;;;7.78;4.13;;;14.00;99.90;;;;;;5050240;28;20029;-52
2021/10/23 12:23:45;;;;;;;8.85;3.90;;;14.00;99.90;;;;;;5049760;28;20760;-51
2021/10/23 12:26:11;;;;;;;13.35;5.55;;;14.10;99.90;;;;;;5049488;28;20025;-52
2021/10/23 12:28:57;;;;;;;5.60;3.33;;;14.20;99.90;;;;;;5055726;28;20480;-51
2021/10/23 12:31:23;;;;;;;9.40;3.90;;;14.20;99.90;;;;;;5049217;28;20464;-51
2021/10/23 12:34:02;;;;;;;9.00;4.57;;;14.20;99.90;;;;;;5049685;28;20086;-51
2021/10/23 12:36:28;;;;;;;8.32;4.07;;;14.10;99.90;;;;;;5052036;28;20543;-51
2021/10/23 12:38:54;;;;;;;7.80;4.63;;;14.00;99.90;;;;;;4984045;28;20131;-51
2021/10/23 12:41:20;;;;;;;7.50;4.93;;;14.10;99.90;;;;;;5053803;28;20035;-51
2021/10/23 12:43:46;;;;;;;9.00;4.07;;;13.90;99.90;;;;;;5055054;28;20032;-53
2021/10/23 12:46:12;;;;;;;7.97;4.05;;;13.60;99.90;;;;;;5053559;28;20020;-51
2021/10/23 12:48:38;;;;;;;6.35;3.45;;;13.60;99.90;;;;;;5052956;28;20072;-52
2021/10/23 12:51:04;;;;;;;7.70;3.97;;;13.70;99.90;;;;;;5053503;28;20071;-52
2021/10/23 12:53:29;;;;;;;7.85;3.72;;;13.70;99.90;;;;;;5054715;28;20035;-52
2021/10/23 12:55:55;;;;;;;6.38;3.60;;;13.70;99.90;;;;;;5053002;28;20688;-51
2021/10/23 12:58:21;;;;;;;5.55;3.58;;;13.60;99.90;;;;;;5017558;28;20086;-52
2021/10/23 13:00:48;;;;;;;8.93;4.15;;;13.50;99.90;;;;;;5054347;28;20506;-54
2021/10/23 13:03:16;;;;;;;7.72;4.78;;;13.50;99.90;;;;;;5051350;28;20036;-51
2021/10/23 13:05:42;;;;;;;9.50;4.40;;;13.50;99.90;;;;;;5052437;28;20032;-52
2021/10/23 13:08:07;;;;;;;8.18;4.50;;;13.50;99.90;;;;;;5002287;28;20122;-51